Time;durP1;ratioP1;P1;durP2;ratioP2;P2;SDS_P1;SDS_P2;PMS_P1;PMS_P2;Temp;Humidity;BMP_temperature;BMP_pressure;BME280_temperature;BME280_humidity;BME280_pressure;Samples;Min_cycle;Max_cycle;Signal;HPM_P1;HPM_P2
2021/08/05 00:01:03;;;;;;;9.50;8.65;;;16.00;99.90;;;;;;3578393;40;20239;-40
2021/08/05 00:03:30;;;;;;;10.73;9.80;;;16.00;99.90;;;;;;3578367;40;20324;-41
2021/08/05 00:05:57;;;;;;;9.70;8.63;;;16.20;99.90;;;;;;3578720;40;20243;-41
2021/08/05 00:08:24;;;;;;;9.98;8.90;;;16.20;99.90;;;;;;3578460;40;20243;-42
2021/08/05 00:10:52;;;;;;;11.45;9.13;;;16.00;99.90;;;;;;3578431;40;20242;-40
2021/08/05 00:13:19;;;;;;;9.98;8.98;;;16.00;99.90;;;;;;3577999;40;20246;-41
2021/08/05 00:15:46;;;;;;;10.73;8.30;;;16.20;99.90;;;;;;3578517;40;20276;-40
2021/08/05 00:18:13;;;;;;;9.30;8.00;;;16.30;99.90;;;;;;3579097;40;20486;-41
2021/08/05 00:20:40;;;;;;;9.32;8.38;;;16.30;99.90;;;;;;3576276;40;20232;-40
2021/08/05 00:23:07;;;;;;;8.05;7.32;;;16.30;99.90;;;;;;3578708;40;20243;-41
2021/08/05 00:25:34;;;;;;;9.95;9.15;;;16.20;99.90;;;;;;3569023;40;20239;-40
2021/08/05 00:28:05;;;;;;;8.45;7.78;;;16.20;99.90;;;;;;3579108;40;20552;-41
2021/08/05 00:30:32;;;;;;;7.97;7.25;;;16.30;99.90;;;;;;3573343;40;20240;-40
2021/08/05 00:33:00;;;;;;;9.52;8.75;;;16.40;99.90;;;;;;3559414;40;20323;-41
2021/08/05 00:35:28;;;;;;;8.90;7.82;;;16.50;99.90;;;;;;3559101;40;20250;-41
2021/08/05 00:37:55;;;;;;;8.30;7.70;;;16.40;99.90;;;;;;3559429;40;20244;-41
2021/08/05 00:40:22;;;;;;;9.40;8.60;;;16.50;99.90;;;;;;3550972;40;20255;-42
2021/08/05 00:42:50;;;;;;;9.07;8.27;;;16.60;99.90;;;;;;3558937;40;20896;-40
2021/08/05 00:45:20;;;;;;;9.82;8.85;;;16.50;99.90;;;;;;3567932;40;20236;-41
2021/08/05 00:47:47;;;;;;;9.20;8.43;;;16.30;99.90;;;;;;3568342;40;20247;-47
2021/08/05 00:50:15;;;;;;;10.88;7.15;;;16.40;99.90;;;;;;3568164;40;20325;-41
2021/08/05 00:52:43;;;;;;;9.48;8.25;;;16.40;99.90;;;;;;3559032;40;20520;-42
2021/08/05 00:55:10;;;;;;;10.63;8.25;;;16.50;99.90;;;;;;3558515;40;20611;-41
2021/08/05 00:57:37;;;;;;;8.38;7.78;;;16.50;99.90;;;;;;3558648;40;20266;-42
2021/08/05 01:00:05;;;;;;;13.48;7.75;;;16.60;99.90;;;;;;3558720;40;20267;-41
2021/08/05 01:02:40;;;;;;;8.32;7.72;;;16.30;99.90;;;;;;3558969;40;20271;-41
2021/08/05 01:05:09;;;;;;;9.52;8.55;;;16.20;99.90;;;;;;3568283;40;20255;-42
2021/08/05 01:07:40;;;;;;;8.30;7.57;;;16.10;99.90;;;;;;3567685;40;20247;-42
2021/08/05 01:10:11;;;;;;;9.60;8.90;;;16.00;99.90;;;;;;3567785;40;20270;-40
2021/08/05 01:12:43;;;;;;;8.60;7.90;;;15.90;99.90;;;;;;3568239;40;20244;-42
2021/08/05 01:15:14;;;;;;;8.40;7.80;;;16.00;99.90;;;;;;3558906;40;20250;-40
2021/08/05 01:17:53;;;;;;;8.35;7.60;;;16.20;99.90;;;;;;3558729;40;20239;-45
2021/08/05 01:20:23;;;;;;;8.27;7.63;;;16.20;99.90;;;;;;3554711;40;20241;-43
2021/08/05 01:23:04;;;;;;;7.57;6.97;;;16.20;99.90;;;;;;3548074;40;20243;-44
2021/08/05 01:25:34;;;;;;;8.52;7.53;;;16.10;99.90;;;;;;3548222;40;20261;-40
2021/08/05 01:28:04;;;;;;;7.82;7.15;;;16.00;99.90;;;;;;3548232;40;20264;-41
2021/08/05 01:30:34;;;;;;;7.68;6.53;;;15.90;99.90;;;;;;3556477;40;20251;-41
2021/08/05 01:33:01;;;;;;;7.18;6.47;;;15.90;99.90;;;;;;3558044;40;20653;-41
2021/08/05 01:35:30;;;;;;;7.60;6.90;;;15.50;99.90;;;;;;3558002;40;20233;-40
2021/08/05 01:37:57;;;;;;;6.60;6.03;;;15.50;99.90;;;;;;3557452;40;20243;-41
2021/08/05 01:40:25;;;;;;;6.85;6.25;;;15.70;99.90;;;;;;3557750;40;20324;-41
2021/08/05 01:42:52;;;;;;;8.23;7.15;;;15.80;99.90;;;;;;3557178;40;20258;-42
2021/08/05 01:45:21;;;;;;;8.60;7.82;;;15.90;99.90;;;;;;3556427;40;20256;-41
2021/08/05 01:47:48;;;;;;;8.80;8.00;;;16.10;99.90;;;;;;3551610;40;20511;-41
2021/08/05 01:50:16;;;;;;;7.90;7.15;;;16.30;99.90;;;;;;3548737;40;20240;-41
2021/08/05 01:52:43;;;;;;;9.25;8.50;;;16.30;99.90;;;;;;3548439;40;20236;-41
2021/08/05 01:55:13;;;;;;;7.30;6.75;;;16.30;99.90;;;;;;3557383;40;20298;-42
2021/08/05 01:57:40;;;;;;;8.00;7.25;;;16.20;99.90;;;;;;3557479;40;20252;-40
2021/08/05 02:00:10;;;;;;;7.60;7.00;;;16.20;99.90;;;;;;3556871;40;20240;-41
2021/08/05 02:02:41;;;;;;;7.07;6.57;;;16.20;99.90;;;;;;3558214;40;20275;-41
2021/08/05 02:05:12;;;;;;;7.18;6.47;;;16.20;99.90;;;;;;3557611;40;20289;-41
2021/08/05 02:07:48;;;;;;;8.52;7.63;;;16.20;99.90;;;;;;3548242;40;20243;-40
2021/08/05 02:10:21;;;;;;;7.82;7.32;;;16.10;99.90;;;;;;3548267;40;20244;-42
2021/08/05 02:12:55;;;;;;;8.95;8.15;;;16.10;99.90;;;;;;3550104;40;20241;-40
2021/08/05 02:15:22;;;;;;;8.70;7.93;;;16.10;99.90;;;;;;3567399;40;20244;-42
2021/08/05 02:17:51;;;;;;;8.10;7.50;;;15.90;99.90;;;;;;3557922;40;20236;-40
2021/08/05 02:20:18;;;;;;;9.40;8.70;;;15.90;99.90;;;;;;3558413;40;20317;-40
2021/08/05 02:22:46;;;;;;;9.30;8.60;;;15.80;99.90;;;;;;3558088;40;20550;-40
2021/08/05 02:25:14;;;;;;;9.48;8.77;;;15.70;99.90;;;;;;3567195;40;20488;-41
2021/08/05 02:27:46;;;;;;;9.65;8.70;;;15.70;99.90;;;;;;3565843;40;20252;-40
2021/08/05 02:30:14;;;;;;;11.52;10.63;;;15.80;99.90;;;;;;3567359;40;20584;-40
2021/08/05 02:32:42;;;;;;;10.85;9.95;;;15.90;99.90;;;;;;3558262;40;20496;-44
2021/08/05 02:35:13;;;;;;;12.80;9.45;;;15.90;99.90;;;;;;3551431;40;20259;-41
2021/08/05 02:37:40;;;;;;;10.73;9.82;;;15.80;99.90;;;;;;3551636;40;20233;-41
2021/08/05 02:40:09;;;;;;;10.52;9.52;;;15.90;99.90;;;;;;3557230;40;20609;-42
2021/08/05 02:42:37;;;;;;;9.27;8.57;;;16.00;99.90;;;;;;3548233;40;20263;-41
2021/08/05 02:45:06;;;;;;;10.43;9.52;;;16.10;99.90;;;;;;3548596;40;20515;-40
2021/08/05 02:47:33;;;;;;;9.93;8.95;;;16.20;99.90;;;;;;3557180;40;20532;-41
2021/08/05 02:50:05;;;;;;;10.15;9.20;;;16.20;99.90;;;;;;3555906;40;20658;-42
2021/08/05 02:52:34;;;;;;;10.48;9.57;;;16.20;99.90;;;;;;3556244;40;20244;-40
2021/08/05 02:55:02;;;;;;;11.30;10.20;;;16.40;99.90;;;;;;3557300;40;20244;-41
2021/08/05 02:57:30;;;;;;;10.48;9.57;;;16.40;99.90;;;;;;3558835;40;20243;-40
2021/08/05 02:59:58;;;;;;;11.70;10.80;;;16.40;99.90;;;;;;3558479;40;20535;-41
2021/08/05 03:02:25;;;;;;;11.43;10.30;;;16.40;99.90;;;;;;3549515;40;20232;-42
2021/08/05 03:04:52;;;;;;;11.65;10.55;;;16.30;99.90;;;;;;3558564;40;20232;-40
2021/08/05 03:07:19;;;;;;;9.63;8.77;;;16.30;99.90;;;;;;3558581;40;20247;-42
2021/08/05 03:09:48;;;;;;;12.02;11.10;;;16.10;99.90;;;;;;3558902;40;20256;-41
2021/08/05 03:12:15;;;;;;;10.93;9.95;;;16.00;99.90;;;;;;3558691;40;20251;-40
2021/08/05 03:14:42;;;;;;;10.73;9.80;;;16.00;99.90;;;;;;3558322;40;20237;-43
2021/08/05 03:17:09;;;;;;;9.63;8.93;;;16.00;99.90;;;;;;3558645;40;20231;-41
2021/08/05 03:19:38;;;;;;;12.90;11.60;;;16.10;99.90;;;;;;3558834;40;20243;-42
2021/08/05 03:22:05;;;;;;;11.18;10.27;;;16.10;99.90;;;;;;3558696;40;20237;-40
2021/08/05 03:24:32;;;;;;;9.50;8.77;;;16.20;99.90;;;;;;3558422;40;20228;-41
2021/08/05 03:27:00;;;;;;;10.88;10.05;;;16.20;99.90;;;;;;3558331;40;20244;-41
2021/08/05 03:29:27;;;;;;;9.40;8.70;;;16.10;99.90;;;;;;3558611;40;20574;-41
2021/08/05 03:31:54;;;;;;;11.55;10.57;;;16.10;99.90;;;;;;3558888;40;20276;-41
2021/08/05 03:34:21;;;;;;;11.25;10.25;;;16.00;99.90;;;;;;3558555;40;20512;-40
2021/08/05 03:36:48;;;;;;;11.63;10.73;;;16.00;99.90;;;;;;3558757;40;20248;-40
2021/08/05 03:39:15;;;;;;;11.35;10.13;;;16.00;99.90;;;;;;3558835;40;20454;-40
2021/08/05 03:41:42;;;;;;;12.25;11.15;;;16.10;99.90;;;;;;3558647;40;20516;-43
2021/08/05 03:44:10;;;;;;;9.82;9.00;;;16.10;99.90;;;;;;3558650;40;20648;-40
2021/08/05 03:46:37;;;;;;;10.43;9.63;;;16.00;99.90;;;;;;3558715;40;20232;-40
2021/08/05 03:49:05;;;;;;;10.73;9.82;;;16.00;99.90;;;;;;3559041;40;20260;-41
2021/08/05 03:51:32;;;;;;;11.70;10.80;;;15.90;99.90;;;;;;3559117;40;20576;-40
2021/08/05 03:53:59;;;;;;;13.27;11.95;;;16.00;99.90;;;;;;3558628;40;20244;-41
2021/08/05 03:56:26;;;;;;;12.07;11.05;;;16.00;99.90;;;;;;3558231;40;20236;-42
2021/08/05 03:58:53;;;;;;;10.75;9.88;;;15.90;99.90;;;;;;3558707;40;20249;-41
2021/08/05 04:01:21;;;;;;;17.25;10.75;;;15.80;99.90;;;;;;3558605;40;20255;-42
2021/08/05 04:03:48;;;;;;;11.93;10.93;;;15.90;99.90;;;;;;3558346;40;20247;-41
2021/08/05 04:06:15;;;;;;;12.57;11.38;;;16.00;99.90;;;;;;3558206;40;20283;-41
2021/08/05 04:08:42;;;;;;;11.73;10.82;;;16.10;99.90;;;;;;3567050;40;20251;-42
2021/08/05 04:11:10;;;;;;;11.23;10.32;;;16.10;99.90;;;;;;3568596;40;20329;-44
2021/08/05 04:13:37;;;;;;;11.13;10.02;;;16.20;99.90;;;;;;3568198;40;20248;-40
2021/08/05 04:16:04;;;;;;;13.98;12.00;;;16.20;99.90;;;;;;3568231;40;20299;-40
2021/08/05 04:18:33;;;;;;;12.07;10.77;;;16.10;99.90;;;;;;3568589;40;20232;-41
2021/08/05 04:20:59;;;;;;;8.90;8.10;;;15.90;99.90;;;;;;3568621;40;20251;-40
2021/08/05 04:23:26;;;;;;;9.20;8.48;;;15.50;99.90;;;;;;3568216;40;20251;-41
2021/08/05 04:25:53;;;;;;;9.15;8.38;;;15.30;99.90;;;;;;3568759;40;20323;-41
2021/08/05 04:28:23;;;;;;;8.40;7.65;;;15.40;99.90;;;;;;3568523;40;20240;-49
2021/08/05 04:30:50;;;;;;;8.70;7.97;;;15.10;99.90;;;;;;3568438;40;20279;-40
2021/08/05 04:33:17;;;;;;;9.63;8.73;;;15.00;99.90;;;;;;3568599;40;20596;-41
2021/08/05 04:35:46;;;;;;;9.65;8.85;;;15.20;99.90;;;;;;3568023;40;20239;-40
2021/08/05 04:38:14;;;;;;;11.40;8.80;;;15.30;99.90;;;;;;3567863;40;20405;-41
2021/08/05 04:40:41;;;;;;;10.55;9.45;;;15.50;99.90;;;;;;3564272;40;20535;-41
2021/08/05 04:43:09;;;;;;;9.88;9.00;;;15.40;99.90;;;;;;3558644;40;20493;-40
2021/08/05 04:45:36;;;;;;;10.23;9.18;;;15.00;99.90;;;;;;3558175;40;20272;-44
2021/08/05 04:48:06;;;;;;;11.13;10.15;;;15.00;99.90;;;;;;3557827;40;20244;-43
2021/08/05 04:50:34;;;;;;;12.43;10.93;;;15.20;99.90;;;;;;3557818;40;20609;-41
2021/08/05 04:53:04;;;;;;;13.07;11.43;;;15.40;99.90;;;;;;3557479;40;20539;-42
2021/08/05 04:55:31;;;;;;;13.15;12.00;;;15.50;99.90;;;;;;3558191;40;20592;-40
2021/08/05 04:58:00;;;;;;;13.05;11.80;;;15.60;99.90;;;;;;3558034;40;20244;-41
2021/08/05 05:00:28;;;;;;;11.55;10.55;;;15.60;99.90;;;;;;3558128;40;20255;-40
2021/08/05 05:02:55;;;;;;;13.00;11.90;;;15.70;99.90;;;;;;3557992;40;20543;-42
2021/08/05 05:05:24;;;;;;;14.30;12.90;;;15.60;99.90;;;;;;3558244;40;20675;-41
2021/08/05 05:07:52;;;;;;;15.75;13.45;;;15.40;99.90;;;;;;3557954;40;20243;-42
2021/08/05 05:10:22;;;;;;;14.50;13.05;;;15.20;99.90;;;;;;3558207;40;20236;-41
2021/08/05 05:12:49;;;;;;;15.07;11.93;;;15.10;99.90;;;;;;3557789;40;20627;-43
2021/08/05 05:15:19;;;;;;;15.20;13.45;;;15.10;99.90;;;;;;3558192;40;20276;-43
2021/08/05 05:17:46;;;;;;;15.82;14.35;;;15.10;99.90;;;;;;3557137;40;20337;-44
2021/08/05 05:20:14;;;;;;;13.60;12.40;;;15.00;99.90;;;;;;3558155;40;20243;-40
2021/08/05 05:22:41;;;;;;;15.25;13.85;;;15.00;99.90;;;;;;3558362;40;20244;-40
2021/08/05 05:25:10;;;;;;;14.80;13.13;;;15.00;99.90;;;;;;3558078;40;20236;-41
2021/08/05 05:27:39;;;;;;;14.43;12.95;;;15.20;99.90;;;;;;3557769;40;20280;-40
2021/08/05 05:30:07;;;;;;;13.98;12.77;;;15.40;99.90;;;;;;3557994;40;20248;-40
2021/08/05 05:32:34;;;;;;;14.27;13.00;;;15.40;99.90;;;;;;3558106;40;20410;-40
2021/08/05 05:35:02;;;;;;;14.00;12.48;;;15.30;99.90;;;;;;3558035;40;20244;-43
2021/08/05 05:37:29;;;;;;;29.27;19.48;;;15.30;99.90;;;;;;3557873;40;20240;-42
2021/08/05 05:39:57;;;;;;;15.55;14.00;;;15.30;99.90;;;;;;3557423;40;20248;-43
2021/08/05 05:42:24;;;;;;;15.60;14.20;;;15.20;99.90;;;;;;3557745;40;20276;-43
2021/08/05 05:44:53;;;;;;;14.18;12.88;;;15.10;99.90;;;;;;3557986;40;20600;-44
2021/08/05 05:47:20;;;;;;;13.73;12.55;;;15.00;99.90;;;;;;3557504;40;20237;-44
2021/08/05 05:49:47;;;;;;;16.60;15.15;;;15.00;99.90;;;;;;3557624;40;20490;-43
2021/08/05 05:52:15;;;;;;;14.77;13.38;;;15.00;99.90;;;;;;3557735;40;20244;-42
2021/08/05 05:54:43;;;;;;;15.20;13.82;;;15.10;99.90;;;;;;3557940;40;20615;-43
2021/08/05 05:57:10;;;;;;;17.05;15.65;;;15.20;99.90;;;;;;3557475;40;20263;-44
2021/08/05 05:59:37;;;;;;;17.83;16.20;;;15.10;99.90;;;;;;3557436;40;20534;-43
2021/08/05 06:02:05;;;;;;;15.95;14.73;;;15.10;99.90;;;;;;3566407;40;20236;-43
2021/08/05 06:04:32;;;;;;;19.40;17.50;;;15.20;99.90;;;;;;3567471;40;20246;-43
2021/08/05 06:07:13;;;;;;;16.17;14.80;;;15.50;99.90;;;;;;3616634;39;20608;-42
2021/08/05 06:09:40;;;;;;;16.48;15.07;;;15.50;99.90;;;;;;3616275;39;20256;-41
2021/08/05 06:12:07;;;;;;;16.33;14.73;;;15.50;99.90;;;;;;3616564;39;20267;-41
2021/08/05 06:14:34;;;;;;;18.30;16.70;;;15.50;99.90;;;;;;3622300;39;20267;-42
2021/08/05 06:17:01;;;;;;;18.23;16.33;;;15.50;99.90;;;;;;3614689;39;20305;-41
2021/08/05 06:19:28;;;;;;;18.20;16.60;;;15.60;99.90;;;;;;3648237;22;20530;-40
2021/08/05 06:21:55;;;;;;;19.20;17.45;;;15.60;99.90;;;;;;3576742;40;20231;-39
2021/08/05 06:24:23;;;;;;;28.90;23.85;;;15.70;99.90;;;;;;3585852;40;20234;-40
2021/08/05 06:26:51;;;;;;;18.30;16.60;;;16.00;99.90;;;;;;3584977;40;20247;-40
2021/08/05 06:29:19;;;;;;;23.20;21.00;;;15.90;99.90;;;;;;3573455;40;20235;-42
2021/08/05 06:31:46;;;;;;;25.20;22.80;;;16.00;99.90;;;;;;3575514;40;20257;-40
2021/08/05 06:34:13;;;;;;;20.02;18.17;;;16.30;99.90;;;;;;3578881;40;20611;-41
2021/08/05 06:36:40;;;;;;;21.50;19.50;;;16.10;99.90;;;;;;3575745;40;20231;-39
2021/08/05 06:39:07;;;;;;;19.15;17.42;;;16.10;99.90;;;;;;3576819;40;20243;-41
2021/08/05 06:41:35;;;;;;;19.08;17.48;;;16.10;99.90;;;;;;3585615;40;20235;-39
2021/08/05 06:44:04;;;;;;;20.67;18.67;;;16.10;99.90;;;;;;3579418;40;20231;-42
2021/08/05 06:46:31;;;;;;;20.70;18.70;;;16.10;99.90;;;;;;3575712;40;20247;-40
2021/08/05 06:48:58;;;;;;;22.05;19.92;;;16.20;99.90;;;;;;3576522;40;20239;-40
2021/08/05 06:51:25;;;;;;;22.23;19.65;;;16.30;99.90;;;;;;3585527;40;20586;-41
2021/08/05 06:53:53;;;;;;;19.27;17.52;;;16.50;99.90;;;;;;3578264;40;20231;-41
2021/08/05 06:56:20;;;;;;;19.05;17.45;;;16.50;99.90;;;;;;3576001;40;20247;-40
2021/08/05 06:58:48;;;;;;;18.17;16.67;;;16.50;99.90;;;;;;3576464;40;20242;-42
2021/08/05 07:01:15;;;;;;;17.50;16.10;;;16.70;99.90;;;;;;3575881;40;20240;-41
2021/08/05 07:03:42;;;;;;;16.88;15.48;;;16.70;99.90;;;;;;3583716;40;20243;-40
2021/08/05 07:06:09;;;;;;;17.23;15.57;;;16.80;99.90;;;;;;3649592;22;20229;-81
2021/08/05 07:08:36;;;;;;;16.17;14.65;;;16.90;99.90;;;;;;3596378;40;20299;-80
2021/08/05 07:11:03;;;;;;;14.43;13.32;;;17.00;99.90;;;;;;3596320;40;20247;-80
2021/08/05 07:13:30;;;;;;;17.08;13.68;;;17.00;99.90;;;;;;3586241;40;20244;-80
2021/08/05 07:15:59;;;;;;;15.15;13.93;;;17.00;99.90;;;;;;3594274;40;20228;-80
2021/08/05 07:18:26;;;;;;;17.23;15.85;;;17.00;99.90;;;;;;3637500;23;20236;-41
2021/08/05 07:20:56;;;;;;;21.13;16.42;;;17.10;99.90;;;;;;3558655;40;20244;-42
2021/08/05 07:23:23;;;;;;;18.90;17.27;;;17.20;99.90;;;;;;3567659;40;20370;-40
2021/08/05 07:25:50;;;;;;;20.80;19.00;;;17.20;99.90;;;;;;3559273;40;20248;-40
2021/08/05 07:28:17;;;;;;;17.50;16.10;;;17.10;99.90;;;;;;3564430;40;20247;-42
2021/08/05 07:30:45;;;;;;;18.70;16.95;;;17.30;99.90;;;;;;3557581;40;20243;-41
2021/08/05 07:33:13;;;;;;;19.52;17.80;;;17.30;99.90;;;;;;3595662;22;20527;-43
2021/08/05 07:35:40;;;;;;;18.70;17.10;;;17.40;99.90;;;;;;3554302;40;20233;-42
2021/08/05 07:38:08;;;;;;;20.55;18.73;;;17.40;99.90;;;;;;3554315;40;20245;-42
2021/08/05 07:40:35;;;;;;;22.27;20.45;;;17.30;99.90;;;;;;3557828;40;20300;-41
2021/08/05 07:43:02;;;;;;;24.90;22.65;;;17.20;99.90;;;;;;3553546;40;20245;-43
2021/08/05 07:45:44;;;;;;;20.17;18.48;;;17.20;99.90;;;;;;3557722;40;20374;-41
2021/08/05 07:48:12;;;;;;;19.60;17.63;;;17.10;99.90;;;;;;3568554;40;20251;-42
2021/08/05 07:50:40;;;;;;;19.23;17.58;;;17.10;99.90;;;;;;3560287;40;20247;-42
2021/08/05 07:53:07;;;;;;;19.77;18.10;;;17.30;99.90;;;;;;3559310;40;20248;-41
2021/08/05 07:55:34;;;;;;;20.83;19.17;;;17.30;99.90;;;;;;3564864;40;20271;-42
2021/08/05 07:58:01;;;;;;;20.10;18.13;;;17.50;99.90;;;;;;3567060;40;20243;-41
2021/08/05 08:00:28;;;;;;;22.88;20.25;;;17.20;99.90;;;;;;3559800;40;20314;-42
2021/08/05 08:02:55;;;;;;;18.90;17.40;;;17.00;99.90;;;;;;3566533;40;20243;-42
2021/08/05 08:05:23;;;;;;;18.88;17.10;;;17.00;99.90;;;;;;3568548;40;20582;-41
2021/08/05 08:07:50;;;;;;;16.80;15.50;;;17.10;99.90;;;;;;3559809;40;20314;-41
2021/08/05 08:10:17;;;;;;;19.42;17.85;;;17.30;99.90;;;;;;3562332;40;20228;-41
2021/08/05 08:12:44;;;;;;;20.40;18.70;;;17.50;99.90;;;;;;3565003;40;20283;-41
2021/08/05 08:15:30;;;;;;;17.23;15.52;;;17.70;99.90;;;;;;3558198;40;20725;-41
2021/08/05 08:17:57;;;;;;;17.20;15.77;;;17.60;99.90;;;;;;3558507;40;20636;-41
2021/08/05 08:20:26;;;;;;;16.88;15.32;;;17.80;99.90;;;;;;3558487;40;20244;-41
2021/08/05 08:22:53;;;;;;;16.65;14.93;;;17.90;99.90;;;;;;3558267;40;20673;-42
2021/08/05 08:25:20;;;;;;;17.30;15.95;;;17.90;99.90;;;;;;3559171;40;20239;-42
2021/08/05 08:27:47;;;;;;;17.13;15.63;;;17.80;99.90;;;;;;3567717;40;20247;-41
2021/08/05 08:30:15;;;;;;;15.27;13.98;;;17.70;99.90;;;;;;3566920;40;20290;-42
2021/08/05 08:32:43;;;;;;;17.77;16.30;;;17.80;99.90;;;;;;3567839;40;20328;-42
2021/08/05 08:35:12;;;;;;;16.13;14.73;;;17.90;99.90;;;;;;3568051;40;20236;-42
2021/08/05 08:37:40;;;;;;;17.45;15.75;;;18.00;99.90;;;;;;3567767;40;20615;-42
2021/08/05 08:40:09;;;;;;;17.33;15.88;;;18.20;99.90;;;;;;3566955;40;20244;-41
2021/08/05 08:42:36;;;;;;;17.63;16.05;;;18.30;99.90;;;;;;3557350;40;20244;-43
2021/08/05 08:45:04;;;;;;;16.48;15.07;;;18.50;99.90;;;;;;3556747;40;20236;-43
2021/08/05 08:47:34;;;;;;;19.00;17.25;;;18.60;99.90;;;;;;3558792;40;20684;-41
2021/08/05 08:50:01;;;;;;;15.68;14.35;;;18.80;99.90;;;;;;3558085;40;20248;-42
2021/08/05 08:52:30;;;;;;;17.40;16.05;;;18.90;99.90;;;;;;3555759;40;20244;-42
2021/08/05 08:55:02;;;;;;;19.83;17.92;;;19.10;99.90;;;;;;3563160;40;20600;-43
2021/08/05 08:57:32;;;;;;;17.42;15.82;;;19.10;99.90;;;;;;3567875;40;20631;-42
2021/08/05 08:59:59;;;;;;;17.35;15.90;;;19.10;99.90;;;;;;3567650;40;20244;-41
2021/08/05 09:02:26;;;;;;;16.92;15.43;;;19.20;99.90;;;;;;3567905;40;20635;-41
2021/08/05 09:04:54;;;;;;;17.95;16.55;;;19.30;99.90;;;;;;3567204;40;20247;-42
2021/08/05 09:07:23;;;;;;;16.02;14.52;;;19.60;99.90;;;;;;3560586;40;20256;-42
2021/08/05 09:09:50;;;;;;;22.20;17.95;;;19.90;99.90;;;;;;3563558;40;20630;-43
2021/08/05 09:12:19;;;;;;;16.95;15.55;;;20.20;99.90;;;;;;3568286;40;20266;-42
2021/08/05 09:14:48;;;;;;;17.67;16.05;;;20.30;99.90;;;;;;3558900;40;20508;-42
2021/08/05 09:17:21;;;;;;;17.83;16.33;;;20.10;99.90;;;;;;3557826;40;20236;-43
2021/08/05 09:19:50;;;;;;;17.02;15.52;;;20.30;99.90;;;;;;3557718;40;20608;-43
2021/08/05 09:22:39;;;;;;;17.05;15.65;;;20.20;99.90;;;;;;3557113;40;20259;-43
2021/08/05 09:25:26;;;;;;;17.40;15.88;;;20.20;99.90;;;;;;3555856;40;20264;-42
2021/08/05 09:27:57;;;;;;;16.40;15.00;;;20.20;99.90;;;;;;3556737;40;20252;-42
2021/08/05 09:30:31;;;;;;;18.33;16.75;;;20.20;99.90;;;;;;3557824;40;20248;-42
2021/08/05 09:33:06;;;;;;;16.88;15.57;;;20.20;99.90;;;;;;3560680;40;20313;-42
2021/08/05 09:35:33;;;;;;;17.48;16.05;;;20.10;99.90;;;;;;3561398;40;20240;-42
2021/08/05 09:38:23;;;;;;;15.50;14.30;;;20.00;99.90;;;;;;3558037;40;20240;-42
2021/08/05 09:40:53;;;;;;;15.73;14.52;;;20.10;99.90;;;;;;3553867;40;20264;-42
2021/08/05 09:43:27;;;;;;;16.58;15.27;;;20.00;99.90;;;;;;3554086;40;20260;-43
2021/08/05 09:45:55;;;;;;;17.08;15.68;;;20.20;99.90;;;;;;3551089;40;20260;-43
2021/08/05 09:48:40;;;;;;;17.85;16.40;;;20.00;99.90;;;;;;3555950;40;20267;-42
2021/08/05 09:51:09;;;;;;;16.67;15.45;;;19.90;99.90;;;;;;3560540;40;20239;-41
2021/08/05 09:53:52;;;;;;;18.85;17.38;;;20.10;99.90;;;;;;3556618;40;20326;-42
2021/08/05 09:56:19;;;;;;;16.70;15.23;;;20.10;99.90;;;;;;3555653;40;20337;-42
2021/08/05 09:58:48;;;;;;;16.95;15.55;;;20.30;99.90;;;;;;3555933;40;20245;-42
2021/08/05 10:01:15;;;;;;;16.13;14.80;;;20.10;99.90;;;;;;3553662;40;20523;-42
2021/08/05 10:03:42;;;;;;;16.27;14.85;;;20.10;99.90;;;;;;3556954;40;20245;-42
2021/08/05 10:06:10;;;;;;;15.48;14.10;;;20.00;99.90;;;;;;3556166;40;20248;-44
2021/08/05 10:08:40;;;;;;;18.02;16.60;;;20.00;99.90;;;;;;3556933;40;20244;-42
2021/08/05 10:11:09;;;;;;;21.83;20.13;;;19.90;99.90;;;;;;3557888;40;20251;-41
2021/08/05 10:13:38;;;;;;;21.63;19.83;;;19.60;99.90;;;;;;3557405;40;20256;-42
2021/08/05 10:16:08;;;;;;;20.58;18.98;;;19.60;99.90;;;;;;3557270;40;20244;-41
2021/08/05 10:18:38;;;;;;;20.45;18.85;;;19.40;99.90;;;;;;3557442;40;20255;-42
2021/08/05 10:21:07;;;;;;;20.45;18.83;;;19.60;99.90;;;;;;3557577;40;20244;-42
2021/08/05 10:23:36;;;;;;;19.98;18.23;;;19.80;99.90;;;;;;3553715;40;20594;-42
2021/08/05 10:26:06;;;;;;;19.67;18.02;;;20.10;99.90;;;;;;3562581;40;20231;-42
2021/08/05 10:28:34;;;;;;;17.40;16.08;;;20.40;99.90;;;;;;3549853;40;20318;-42
2021/08/05 10:31:07;;;;;;;18.63;17.10;;;20.80;99.90;;;;;;3564491;40;20322;-43
2021/08/05 10:33:37;;;;;;;14.60;13.45;;;21.50;99.90;;;;;;3557748;40;20322;-46
2021/08/05 10:36:05;;;;;;;15.13;13.63;;;21.90;99.90;;;;;;3556937;40;20294;-42
2021/08/05 10:38:33;;;;;;;14.57;13.32;;;22.00;99.90;;;;;;3556323;40;20621;-43
2021/08/05 10:41:01;;;;;;;14.38;13.18;;;22.30;99.90;;;;;;3557428;40;20240;-43
2021/08/05 10:43:28;;;;;;;14.70;13.57;;;22.30;99.90;;;;;;3557113;40;20260;-42
2021/08/05 10:45:56;;;;;;;24.65;18.35;;;22.00;99.90;;;;;;3555801;40;20256;-42
2021/08/05 10:48:24;;;;;;;15.00;13.50;;;22.30;99.90;;;;;;3557090;40;20252;-43
2021/08/05 10:50:52;;;;;;;13.95;12.70;;;22.90;99.90;;;;;;3557348;40;20491;-43
2021/08/05 10:53:43;;;;;;;15.52;14.27;;;23.00;99.90;;;;;;3558074;40;20252;-42
2021/08/05 10:56:24;;;;;;;15.70;14.10;;;22.80;99.90;;;;;;3558506;40;20237;-42
2021/08/05 10:59:12;;;;;;;12.85;11.77;;;22.80;99.90;;;;;;3558849;40;20244;-43
2021/08/05 11:01:50;;;;;;;12.88;11.85;;;23.10;99.90;;;;;;3554444;40;20319;-43
2021/08/05 11:04:41;;;;;;;14.30;13.05;;;23.20;99.90;;;;;;3553233;40;20371;-43
2021/08/05 11:07:26;;;;;;;13.50;12.30;;;23.50;99.90;;;;;;3558914;40;20243;-43
2021/08/05 11:10:22;;;;;;;14.95;13.75;;;23.50;99.90;;;;;;3556471;40;20243;-43
2021/08/05 11:12:51;;;;;;;11.15;10.15;;;23.40;99.90;;;;;;3560726;40;20256;-42
2021/08/05 11:15:50;;;;;;;11.88;10.88;;;23.10;99.90;;;;;;3557774;40;20243;-43
2021/08/05 11:18:25;;;;;;;11.48;10.50;;;23.00;99.90;;;;;;3555160;40;20264;-44
2021/08/05 11:21:26;;;;;;;16.45;12.40;;;23.20;99.90;;;;;;3556506;40;20240;-44
2021/08/05 11:23:55;;;;;;;13.18;11.98;;;23.60;99.90;;;;;;3518194;40;20253;-43
2021/08/05 11:26:24;;;;;;;12.32;11.35;;;23.50;99.90;;;;;;3543299;40;20252;-43
2021/08/05 11:28:54;;;;;;;10.27;9.48;;;23.80;99.90;;;;;;3553344;40;20276;-43
2021/08/05 11:31:33;;;;;;;10.07;9.38;;;23.90;99.90;;;;;;3558452;40;20256;-43
2021/08/05 11:34:04;;;;;;;11.82;10.90;;;23.80;99.90;;;;;;3558869;40;20631;-43
2021/08/05 11:36:47;;;;;;;14.23;12.88;;;23.60;99.90;;;;;;3558815;40;20284;-43
2021/08/05 11:39:22;;;;;;;10.70;9.90;;;23.70;99.90;;;;;;3558443;40;20249;-43
2021/08/05 11:41:57;;;;;;;12.13;11.18;;;23.60;99.90;;;;;;3557969;40;20314;-43
2021/08/05 11:44:33;;;;;;;11.88;10.98;;;23.90;99.90;;;;;;3556108;40;20245;-44
2021/08/05 11:47:20;;;;;;;13.32;12.23;;;24.20;99.90;;;;;;3563872;40;20266;-44
2021/08/05 11:49:50;;;;;;;11.90;10.90;;;24.50;99.90;;;;;;3568843;40;20247;-43
2021/08/05 11:52:19;;;;;;;13.32;12.15;;;24.60;99.90;;;;;;3558262;40;20250;-44
2021/08/05 11:54:50;;;;;;;10.95;10.10;;;24.40;99.90;;;;;;3557995;40;20273;-44
2021/08/05 11:57:19;;;;;;;11.82;10.80;;;24.20;99.90;;;;;;3558223;40;20251;-43
2021/08/05 11:59:49;;;;;;;9.77;9.00;;;24.30;99.90;;;;;;3557665;40;20526;-43
2021/08/05 12:02:19;;;;;;;10.35;9.63;;;24.70;99.90;;;;;;3555344;40;20253;-44
2021/08/05 12:04:46;;;;;;;11.00;10.20;;;25.00;99.90;;;;;;3560939;40;20605;-43
2021/08/05 12:07:25;;;;;;;8.65;7.97;;;25.20;99.90;;;;;;3553026;40;20248;-43
2021/08/05 12:09:58;;;;;;;10.85;9.95;;;25.10;99.90;;;;;;3557764;40;20330;-43
2021/08/05 12:12:27;;;;;;;10.23;9.43;;;24.90;99.90;;;;;;3558380;40;20244;-44
2021/08/05 12:14:57;;;;;;;9.40;8.68;;;24.60;99.90;;;;;;3558641;40;20228;-43
2021/08/05 12:17:36;;;;;;;8.05;7.45;;;25.00;99.90;;;;;;3558242;40;20240;-43
2021/08/05 12:20:07;;;;;;;7.78;7.28;;;25.20;99.90;;;;;;3554008;40;20239;-43
2021/08/05 12:22:36;;;;;;;6.80;6.30;;;25.50;99.90;;;;;;3558678;40;20252;-43
2021/08/05 12:25:10;;;;;;;8.98;8.27;;;25.80;99.90;;;;;;3558095;40;20646;-43
2021/08/05 12:27:38;;;;;;;7.82;6.80;;;26.00;99.90;;;;;;3566886;40;20618;-44
2021/08/05 12:30:08;;;;;;;7.40;6.90;;;25.70;99.90;;;;;;3560055;40;20236;-42
2021/08/05 12:32:37;;;;;;;6.57;6.07;;;25.90;99.90;;;;;;3558565;40;20326;-44
2021/08/05 12:35:12;;;;;;;6.13;5.72;;;26.00;99.90;;;;;;3559756;40;20330;-43
2021/08/05 12:37:39;;;;;;;7.97;6.60;;;26.10;99.90;;;;;;3561824;40;20612;-43
2021/08/05 12:40:12;;;;;;;5.97;5.57;;;26.30;99.90;;;;;;3556596;40;20330;-44
2021/08/05 12:42:39;;;;;;;5.55;5.15;;;26.30;99.90;;;;;;3561857;40;20247;-44
2021/08/05 12:45:07;;;;;;;5.60;5.10;;;26.30;99.90;;;;;;3560499;40;20302;-44